Time;durP1;ratioP1;P1;durP2;ratioP2;P2;SDS_P1;SDS_P2;PMS_P1;PMS_P2;Temp;Humidity;BMP_temperature;BMP_pressure;BME280_temperature;BME280_humidity;BME280_pressure;Samples;Min_cycle;Max_cycle;Signal;HPM_P1;HPM_P2
2022/08/04 00:00:05;;;;;;;5.33;2.93;;;24.90;60.70;;;;;;5025853;28;20488;-75
2022/08/04 00:02:47;;;;;;;6.13;3.20;;;24.80;60.70;;;;;;5020420;28;20518;-76
2022/08/04 00:05:24;;;;;;;10.00;3.70;;;24.80;60.60;;;;;;5022635;28;20524;-74
2022/08/04 00:08:01;;;;;;;5.70;2.70;;;24.70;60.60;;;;;;5022219;28;20488;-74
2022/08/04 00:10:33;;;;;;;9.20;3.23;;;24.70;60.60;;;;;;5023425;28;20848;-75
2022/08/04 00:13:04;;;;;;;5.13;3.13;;;24.60;60.60;;;;;;5023200;28;20462;-74
2022/08/04 00:15:35;;;;;;;6.87;3.47;;;24.50;60.60;;;;;;5029780;28;20456;-75
2022/08/04 00:18:05;;;;;;;6.50;3.33;;;24.40;60.50;;;;;;5023103;28;20471;-74
2022/08/04 00:20:34;;;;;;;7.93;3.30;;;24.30;60.60;;;;;;5024106;28;20488;-75
2022/08/04 00:23:03;;;;;;;7.00;3.10;;;24.30;60.70;;;;;;5023419;28;20458;-76
2022/08/04 00:25:31;;;;;;;9.70;3.20;;;24.20;60.80;;;;;;5023861;28;20558;-76
2022/08/04 00:28:01;;;;;;;5.13;3.37;;;24.20;60.90;;;;;;5012122;28;20474;-76
2022/08/04 00:30:29;;;;;;;6.23;3.40;;;24.20;61.00;;;;;;5019575;28;20464;-76
2022/08/04 00:33:00;;;;;;;5.27;3.23;;;24.20;61.00;;;;;;5024328;28;21034;-75
2022/08/04 00:35:31;;;;;;;5.60;3.57;;;24.20;61.10;;;;;;5023155;28;21052;-75
2022/08/04 00:38:00;;;;;;;5.30;3.00;;;24.20;61.10;;;;;;5023219;28;20487;-75
2022/08/04 00:40:35;;;;;;;4.97;3.07;;;24.20;61.20;;;;;;5023305;28;20491;-75
2022/08/04 00:43:12;;;;;;;6.57;3.40;;;24.20;61.30;;;;;;5030017;28;20453;-75
2022/08/04 00:46:16;;;;;;;6.10;3.00;;;24.20;61.30;;;;;;5023449;28;20869;-75
2022/08/04 00:49:02;;;;;;;5.70;3.67;;;24.10;61.30;;;;;;5021966;28;21883;-75
2022/08/04 00:51:41;;;;;;;6.63;3.83;;;24.10;61.40;;;;;;5023330;28;20477;-75
2022/08/04 00:54:17;;;;;;;7.20;3.43;;;24.00;61.50;;;;;;5023499;28;20475;-76
2022/08/04 00:57:27;;;;;;;5.13;3.13;;;24.00;61.50;;;;;;5017717;28;20509;-75
2022/08/04 01:00:08;;;;;;;5.63;3.60;;;23.90;61.70;;;;;;5024753;28;20490;-75
2022/08/04 01:02:39;;;;;;;5.93;2.70;;;23.90;61.80;;;;;;5010736;28;20516;-75
2022/08/04 01:05:20;;;;;;;6.57;3.37;;;23.90;61.80;;;;;;5014168;28;20953;-75
2022/08/04 01:08:23;;;;;;;5.90;3.20;;;23.90;61.90;;;;;;5014554;28;21249;-76
2022/08/04 01:11:03;;;;;;;5.83;3.60;;;23.90;61.90;;;;;;5004822;28;20522;-76
2022/08/04 01:13:54;;;;;;;6.67;3.23;;;23.80;62.00;;;;;;5022682;28;20465;-75
2022/08/04 01:16:26;;;;;;;6.87;3.87;;;23.80;62.10;;;;;;5024400;28;20490;-75
2022/08/04 01:18:58;;;;;;;6.00;3.43;;;23.80;62.20;;;;;;5023473;28;20477;-74
2022/08/04 01:22:17;;;;;;;5.80;3.30;;;23.80;62.30;;;;;;5024541;28;20519;-74
2022/08/04 01:24:59;;;;;;;7.70;3.23;;;23.80;62.40;;;;;;5018413;28;20475;-74
2022/08/04 01:27:49;;;;;;;5.43;3.27;;;23.70;62.50;;;;;;5023750;28;20474;-76
2022/08/04 01:30:18;;;;;;;5.73;3.50;;;23.70;62.50;;;;;;5022816;28;20495;-75
2022/08/04 01:32:52;;;;;;;6.50;3.73;;;23.70;62.50;;;;;;5022230;28;20451;-75
2022/08/04 01:35:25;;;;;;;7.10;3.67;;;23.60;62.50;;;;;;5030817;28;20455;-75
2022/08/04 01:38:19;;;;;;;6.47;3.80;;;23.60;62.50;;;;;;5028777;28;20464;-75
2022/08/04 01:40:53;;;;;;;6.60;3.43;;;23.50;62.60;;;;;;5023898;28;20481;-75
2022/08/04 01:43:22;;;;;;;5.93;3.43;;;23.50;62.70;;;;;;5013897;28;20820;-75
2022/08/04 01:46:00;;;;;;;5.93;3.50;;;23.50;62.80;;;;;;5025943;28;20501;-75
2022/08/04 01:48:29;;;;;;;8.77;3.53;;;23.50;62.80;;;;;;5022320;28;20486;-75
2022/08/04 01:51:02;;;;;;;5.43;3.50;;;23.50;62.90;;;;;;5005524;28;20539;-75
2022/08/04 01:53:32;;;;;;;5.40;3.63;;;23.50;62.90;;;;;;5022636;28;20468;-75
2022/08/04 01:56:02;;;;;;;7.00;3.10;;;23.50;62.90;;;;;;5024824;28;20469;-75
2022/08/04 01:58:31;;;;;;;7.70;2.90;;;23.40;62.90;;;;;;5008954;28;20453;-75
2022/08/04 02:01:03;;;;;;;7.60;3.67;;;23.40;63.00;;;;;;5004459;28;20495;-76
2022/08/04 02:03:37;;;;;;;5.50;3.30;;;23.40;63.00;;;;;;5009952;28;20468;-75
2022/08/04 02:06:31;;;;;;;9.60;3.60;;;23.40;63.10;;;;;;5003601;28;20474;-76
2022/08/04 02:09:10;;;;;;;6.63;3.37;;;23.40;63.10;;;;;;5003495;28;20466;-75
2022/08/04 02:11:42;;;;;;;9.53;3.73;;;23.40;63.10;;;;;;5004341;28;20455;-75
2022/08/04 02:14:39;;;;;;;5.03;3.17;;;23.40;63.10;;;;;;4992354;28;20473;-74
2022/08/04 02:17:11;;;;;;;6.27;3.70;;;23.40;63.10;;;;;;5001954;28;20563;-74
2022/08/04 02:19:58;;;;;;;6.10;3.20;;;23.40;63.10;;;;;;5001052;28;20878;-74
2022/08/04 02:22:28;;;;;;;5.50;3.87;;;23.40;63.20;;;;;;5003779;28;20453;-74
2022/08/04 02:25:03;;;;;;;6.70;3.87;;;23.30;63.20;;;;;;4995018;28;20463;-74
2022/08/04 02:27:55;;;;;;;7.90;3.77;;;23.30;63.10;;;;;;5002466;28;20578;-74
2022/08/04 02:30:32;;;;;;;5.50;3.53;;;23.30;63.00;;;;;;5003633;28;20479;-74
2022/08/04 02:33:04;;;;;;;6.57;4.30;;;23.20;63.10;;;;;;5005210;28;20454;-74
2022/08/04 02:35:36;;;;;;;7.63;3.70;;;23.20;63.20;;;;;;5005399;28;20450;-74
2022/08/04 02:38:16;;;;;;;6.47;3.77;;;23.10;63.20;;;;;;4997611;28;20454;-75
2022/08/04 02:40:55;;;;;;;5.97;3.87;;;23.10;63.30;;;;;;4991318;28;21017;-76
2022/08/04 02:43:28;;;;;;;6.53;4.00;;;23.00;63.30;;;;;;5010359;28;20487;-75
2022/08/04 02:46:18;;;;;;;7.50;4.00;;;23.00;63.30;;;;;;4995371;28;20481;-75
2022/08/04 02:48:49;;;;;;;5.83;3.70;;;23.00;63.40;;;;;;5006835;28;20478;-74
2022/08/04 02:51:21;;;;;;;5.27;3.10;;;23.00;63.40;;;;;;5005867;28;20492;-75
2022/08/04 02:53:53;;;;;;;6.80;3.40;;;22.90;63.40;;;;;;5006974;28;20458;-75
2022/08/04 02:56:22;;;;;;;6.40;4.00;;;22.90;63.50;;;;;;5008750;28;20447;-76
2022/08/04 02:58:53;;;;;;;5.90;3.70;;;22.90;63.60;;;;;;4994923;28;20989;-76
2022/08/04 03:01:22;;;;;;;6.80;4.07;;;22.80;63.70;;;;;;5005654;28;20496;-75
2022/08/04 03:04:07;;;;;;;8.37;3.50;;;22.80;63.70;;;;;;5007041;28;20984;-74
2022/08/04 03:07:21;;;;;;;9.83;4.53;;;22.70;63.70;;;;;;5004654;28;20483;-74
2022/08/04 03:10:17;;;;;;;6.67;3.80;;;22.70;63.80;;;;;;5004915;28;20863;-75
2022/08/04 03:13:19;;;;;;;5.70;3.60;;;22.70;63.90;;;;;;4997751;28;20559;-74
2022/08/04 03:16:18;;;;;;;6.10;3.93;;;22.70;63.90;;;;;;5007036;28;20483;-76
2022/08/04 03:19:22;;;;;;;6.07;4.10;;;22.60;63.90;;;;;;4973176;28;20464;-76
2022/08/04 03:22:38;;;;;;;8.10;4.10;;;22.60;64.00;;;;;;5007488;28;20559;-76
2022/08/04 03:25:49;;;;;;;6.90;3.90;;;22.50;64.20;;;;;;4996574;28;20464;-77
2022/08/04 03:28:59;;;;;;;9.30;4.23;;;22.50;64.20;;;;;;5004958;28;20571;-77
2022/08/04 03:31:54;;;;;;;6.63;4.20;;;22.50;64.20;;;;;;5004729;28;20474;-77
2022/08/04 03:34:49;;;;;;;10.20;4.30;;;22.50;64.20;;;;;;5007200;28;20476;-76
2022/08/04 03:37:36;;;;;;;7.90;4.23;;;22.50;64.20;;;;;;5005217;28;20469;-75
2022/08/04 03:40:34;;;;;;;7.00;3.90;;;22.40;64.00;;;;;;5001845;28;20479;-75
2022/08/04 03:43:46;;;;;;;8.43;5.07;;;22.40;64.20;;;;;;5008894;28;20547;-75
2022/08/04 03:46:53;;;;;;;8.27;4.50;;;22.40;64.20;;;;;;5007374;28;20581;-76
2022/08/04 03:50:01;;;;;;;8.73;4.30;;;22.30;64.20;;;;;;5001139;28;20567;-75
2022/08/04 03:53:10;;;;;;;8.07;4.37;;;22.30;64.20;;;;;;5011065;28;20456;-76
2022/08/04 03:56:25;;;;;;;6.97;5.10;;;22.20;64.20;;;;;;5005108;28;20521;-75
2022/08/04 03:59:23;;;;;;;6.33;4.27;;;22.20;64.30;;;;;;5006957;28;20473;-76
2022/08/04 04:02:10;;;;;;;6.80;4.43;;;22.10;64.40;;;;;;5002724;28;20487;-76
2022/08/04 04:05:25;;;;;;;6.10;4.00;;;22.10;64.40;;;;;;5007254;28;20452;-77
2022/08/04 04:08:23;;;;;;;7.13;4.00;;;22.10;64.50;;;;;;4994057;28;20488;-77
2022/08/04 04:11:29;;;;;;;6.30;4.03;;;22.10;64.50;;;;;;5008201;28;20524;-77
2022/08/04 04:14:17;;;;;;;6.00;4.00;;;22.10;64.60;;;;;;5007900;28;20474;-77
2022/08/04 04:17:11;;;;;;;8.60;3.87;;;22.10;64.70;;;;;;5012847;28;20537;-76
2022/08/04 04:20:05;;;;;;;5.70;3.50;;;22.20;64.80;;;;;;5005565;28;20497;-76
2022/08/04 04:23:00;;;;;;;5.50;3.43;;;22.20;64.90;;;;;;5006202;28;20551;-76
2022/08/04 04:25:39;;;;;;;7.57;3.80;;;22.20;65.00;;;;;;5010403;28;21056;-76
2022/08/04 04:28:32;;;;;;;5.73;3.83;;;22.20;65.00;;;;;;5011636;28;20478;-76
2022/08/04 04:31:43;;;;;;;9.47;4.23;;;22.20;65.10;;;;;;5012666;28;20499;-75
2022/08/04 04:34:26;;;;;;;8.30;4.00;;;22.20;65.10;;;;;;4989722;28;20494;-76
2022/08/04 04:37:17;;;;;;;6.23;4.27;;;22.20;65.10;;;;;;5009096;28;20479;-76
2022/08/04 04:40:02;;;;;;;6.47;3.97;;;22.20;65.10;;;;;;5012590;28;20481;-76
2022/08/04 04:43:00;;;;;;;7.00;3.37;;;22.20;65.10;;;;;;5005074;28;20474;-75
2022/08/04 04:45:34;;;;;;;6.47;3.70;;;22.20;65.20;;;;;;5001948;28;20484;-75
2022/08/04 04:48:09;;;;;;;7.10;4.03;;;22.20;65.30;;;;;;5001590;28;20455;-75
2022/08/04 04:50:55;;;;;;;5.60;3.60;;;22.30;65.30;;;;;;5004659;28;20501;-75
2022/08/04 04:53:28;;;;;;;7.00;3.70;;;22.30;65.30;;;;;;5012795;28;20469;-75
2022/08/04 04:56:05;;;;;;;6.00;4.03;;;22.40;65.30;;;;;;5005103;28;20474;-75
2022/08/04 04:58:35;;;;;;;6.80;3.87;;;22.50;65.30;;;;;;5006864;28;20534;-75
2022/08/04 05:01:26;;;;;;;6.93;3.97;;;22.60;65.30;;;;;;4981333;28;20474;-75
2022/08/04 05:04:17;;;;;;;7.30;3.63;;;22.70;65.40;;;;;;5005969;28;20475;-75
2022/08/04 05:07:10;;;;;;;8.67;4.20;;;22.80;65.50;;;;;;5003040;28;20480;-75
2022/08/04 05:09:52;;;;;;;8.63;3.90;;;23.00;65.60;;;;;;5005813;28;20495;-76
2022/08/04 05:13:02;;;;;;;7.00;3.90;;;23.20;65.70;;;;;;5005750;28;20462;-75
2022/08/04 05:15:55;;;;;;;9.17;4.30;;;23.40;65.70;;;;;;5004693;28;20473;-75
2022/08/04 05:18:29;;;;;;;5.97;3.93;;;23.60;65.70;;;;;;5011116;28;20470;-76
2022/08/04 05:21:08;;;;;;;6.13;3.90;;;23.90;66.00;;;;;;5007184;28;20491;-76
2022/08/04 05:23:40;;;;;;;6.20;4.07;;;24.40;65.80;;;;;;4996016;28;20469;-75
2022/08/04 05:26:13;;;;;;;6.70;3.90;;;25.20;64.70;;;;;;5004667;28;20558;-75
2022/08/04 05:28:46;;;;;;;6.40;3.97;;;26.10;63.20;;;;;;5012088;28;20475;-76
2022/08/04 05:31:20;;;;;;;8.60;3.43;;;26.80;61.40;;;;;;5004196;28;20477;-72
2022/08/04 05:33:51;;;;;;;6.73;3.93;;;27.50;60.60;;;;;;5005852;28;20452;-75
2022/08/04 05:36:23;;;;;;;6.50;3.77;;;28.10;59.50;;;;;;5008423;28;20458;-75
2022/08/04 05:39:12;;;;;;;10.20;4.10;;;28.40;58.80;;;;;;4989257;28;20505;-75
2022/08/04 05:41:42;;;;;;;6.43;4.10;;;28.90;58.80;;;;;;5005552;28;20453;-74
2022/08/04 05:44:18;;;;;;;9.00;4.10;;;29.70;58.00;;;;;;5004953;28;20458;-75
2022/08/04 05:46:51;;;;;;;6.47;4.23;;;30.50;56.90;;;;;;5006461;28;20484;-75
2022/08/04 05:49:23;;;;;;;8.27;4.30;;;31.30;56.00;;;;;;5008766;28;20519;-75
2022/08/04 05:51:52;;;;;;;7.37;3.30;;;32.20;55.00;;;;;;5007887;28;20579;-75
2022/08/04 05:54:21;;;;;;;12.30;3.70;;;33.00;53.80;;;;;;5005995;28;20457;-74
2022/08/04 05:56:50;;;;;;;6.10;3.53;;;33.70;52.90;;;;;;5005523;28;20472;-75
2022/08/04 05:59:24;;;;;;;8.80;4.50;;;34.20;51.70;;;;;;5003139;28;20471;-75
2022/08/04 06:01:55;;;;;;;8.37;5.27;;;34.60;50.60;;;;;;5003812;28;20538;-75
2022/08/04 06:04:30;;;;;;;9.27;3.47;;;34.80;50.00;;;;;;4994637;28;20570;-76
2022/08/04 06:06:59;;;;;;;7.60;3.83;;;35.30;49.60;;;;;;5001120;28;20483;-75
2022/08/04 06:09:27;;;;;;;9.80;4.00;;;35.70;48.80;;;;;;4993805;28;20468;-75
2022/08/04 06:11:59;;;;;;;7.67;3.53;;;36.20;47.90;;;;;;5004564;28;20457;-75
2022/08/04 06:14:39;;;;;;;5.90;3.33;;;36.60;47.10;;;;;;4996718;28;21365;-75
2022/08/04 06:17:09;;;;;;;6.50;3.70;;;36.50;45.90;;;;;;5003381;28;20496;-75
2022/08/04 06:19:58;;;;;;;7.43;3.80;;;35.40;45.80;;;;;;5004090;28;20486;-75
2022/08/04 06:22:47;;;;;;;6.70;3.33;;;33.70;46.70;;;;;;5005672;28;20487;-75
2022/08/04 06:25:19;;;;;;;6.20;3.60;;;32.10;48.00;;;;;;5003787;28;20474;-75
2022/08/04 06:27:49;;;;;;;6.93;3.40;;;30.90;49.30;;;;;;5004552;28;20454;-75
2022/08/04 06:30:19;;;;;;;7.10;3.93;;;29.80;50.50;;;;;;5002084;28;20498;-75
2022/08/04 06:32:54;;;;;;;10.47;4.37;;;29.00;51.60;;;;;;5001915;28;20964;-75
2022/08/04 06:35:32;;;;;;;8.43;3.60;;;28.40;52.60;;;;;;5004243;28;20456;-74
2022/08/04 06:38:01;;;;;;;11.87;3.80;;;27.80;53.50;;;;;;5003461;28;20459;-75
2022/08/04 06:40:30;;;;;;;11.17;4.03;;;27.50;54.30;;;;;;5005574;28;20475;-75
2022/08/04 06:43:02;;;;;;;6.83;3.90;;;27.20;54.90;;;;;;5003249;28;20514;-74
2022/08/04 06:45:33;;;;;;;8.27;3.53;;;26.90;55.30;;;;;;5002951;28;20493;-75
2022/08/04 06:48:03;;;;;;;8.43;4.37;;;26.80;56.00;;;;;;5003858;28;20553;-75
2022/08/04 06:50:32;;;;;;;7.77;4.33;;;26.60;56.30;;;;;;5013207;28;20514;-74
2022/08/04 06:53:20;;;;;;;7.80;4.27;;;26.50;56.70;;;;;;5000235;28;20469;-75
2022/08/04 06:55:49;;;;;;;8.80;4.50;;;26.50;57.00;;;;;;5000682;28;20467;-75
2022/08/04 06:58:19;;;;;;;10.13;3.10;;;26.40;57.20;;;;;;5001315;28;20545;-75
2022/08/04 07:00:49;;;;;;;7.67;2.97;;;26.40;57.30;;;;;;5002263;28;20932;-75
2022/08/04 07:03:20;;;;;;;7.50;2.80;;;26.40;57.40;;;;;;5002548;28;20461;-75
2022/08/04 07:05:51;;;;;;;6.50;2.73;;;26.40;57.50;;;;;;5002904;28;20533;-75
2022/08/04 07:08:19;;;;;;;8.87;2.97;;;26.40;57.70;;;;;;5004728;28;20472;-74
2022/08/04 07:10:48;;;;;;;6.40;2.97;;;26.50;57.80;;;;;;4998999;28;20498;-75
2022/08/04 07:13:18;;;;;;;4.97;2.50;;;26.50;57.90;;;;;;5003509;28;20460;-75
2022/08/04 07:15:49;;;;;;;6.63;2.23;;;26.50;57.80;;;;;;5006270;28;20494;-75
2022/08/04 07:18:17;;;;;;;6.20;2.20;;;26.60;57.70;;;;;;4999940;28;21322;-75
2022/08/04 07:20:46;;;;;;;5.70;2.10;;;26.70;57.60;;;;;;5003364;28;20517;-74
2022/08/04 07:23:18;;;;;;;6.87;2.33;;;26.70;57.60;;;;;;5002414;28;20466;-75
2022/08/04 07:25:51;;;;;;;7.70;2.50;;;26.80;57.60;;;;;;4999766;28;22092;-74
2022/08/04 07:28:40;;;;;;;6.13;2.30;;;26.90;57.50;;;;;;5003110;28;20476;-75
2022/08/04 07:31:15;;;;;;;5.10;2.47;;;26.90;57.50;;;;;;5006897;28;20906;-79
2022/08/04 07:34:03;;;;;;;6.97;2.37;;;27.00;57.40;;;;;;5007942;28;20462;-79
2022/08/04 07:36:48;;;;;;;10.07;2.37;;;27.10;57.30;;;;;;5001724;28;20459;-79
2022/08/04 07:39:21;;;;;;;5.00;2.10;;;27.20;57.20;;;;;;5006122;28;20573;-80
2022/08/04 07:41:58;;;;;;;7.97;2.20;;;27.20;57.00;;;;;;5003315;28;20451;-79
2022/08/04 07:44:29;;;;;;;5.67;2.27;;;27.30;57.00;;;;;;5009663;28;20451;-80
2022/08/04 07:46:59;;;;;;;5.37;2.60;;;27.40;56.90;;;;;;4996361;28;20507;-80
2022/08/04 07:49:27;;;;;;;9.40;2.50;;;27.50;56.80;;;;;;5009060;28;21272;-80
2022/08/04 07:52:15;;;;;;;8.07;2.53;;;27.60;56.60;;;;;;5008125;28;20472;-79
2022/08/04 07:54:44;;;;;;;10.17;2.60;;;27.70;56.60;;;;;;5008743;28;20555;-80
2022/08/04 07:57:12;;;;;;;10.83;2.90;;;27.70;56.60;;;;;;5010038;28;20958;-80
2022/08/04 08:00:00;;;;;;;9.70;2.60;;;27.80;56.60;;;;;;5006019;28;20478;-80
2022/08/04 08:02:40;;;;;;;7.70;2.73;;;27.90;56.30;;;;;;5027213;28;20466;-80
2022/08/04 08:05:09;;;;;;;8.30;3.10;;;28.00;56.30;;;;;;5027948;28;20470;-79
2022/08/04 08:07:38;;;;;;;7.53;2.83;;;28.00;56.20;;;;;;5026801;28;20478;-79
2022/08/04 08:10:21;;;;;;;7.63;2.77;;;28.10;56.10;;;;;;5027900;28;20486;-79
2022/08/04 08:12:50;;;;;;;6.20;2.40;;;28.20;56.10;;;;;;5028333;28;20463;-79
2022/08/04 08:15:20;;;;;;;29.33;6.13;;;28.30;56.00;;;;;;5029962;28;20550;-79
2022/08/04 08:17:49;;;;;;;6.97;2.40;;;28.30;55.90;;;;;;5026678;28;20553;-80
2022/08/04 08:20:31;;;;;;;6.67;2.50;;;28.40;55.80;;;;;;5016919;28;20841;-79
2022/08/04 08:23:00;;;;;;;8.70;2.47;;;28.40;55.70;;;;;;5026668;28;20485;-79
2022/08/04 08:25:30;;;;;;;7.10;2.20;;;28.50;55.60;;;;;;5029701;28;20447;-80
2022/08/04 08:27:59;;;;;;;6.97;2.10;;;28.60;55.40;;;;;;5028429;28;20457;-80
2022/08/04 08:30:27;;;;;;;6.07;2.17;;;28.70;55.20;;;;;;5026582;28;20571;-80
2022/08/04 08:33:03;;;;;;;8.30;2.20;;;28.80;55.00;;;;;;5028360;28;20458;-79
2022/08/04 08:35:41;;;;;;;7.77;2.43;;;28.80;54.60;;;;;;5031820;28;20523;-79
2022/08/04 08:38:32;;;;;;;8.37;1.73;;;28.90;54.40;;;;;;5026656;28;20514;-79
2022/08/04 08:41:18;;;;;;;4.80;2.03;;;29.00;53.90;;;;;;5025205;28;20990;-79
2022/08/04 08:44:10;;;;;;;4.57;1.97;;;29.10;53.60;;;;;;5024610;28;20830;-79
2022/08/04 08:47:09;;;;;;;5.93;1.80;;;29.20;53.10;;;;;;5022049;28;20572;-79
2022/08/04 08:50:12;;;;;;;4.40;1.73;;;29.30;52.70;;;;;;5023100;28;20485;-79
2022/08/04 08:53:08;;;;;;;4.10;1.80;;;29.40;51.90;;;;;;5022980;28;20558;-79
2022/08/04 08:55:45;;;;;;;7.37;1.90;;;29.60;51.80;;;;;;5027182;28;20469;-79
2022/08/04 08:58:43;;;;;;;4.60;1.77;;;29.70;51.80;;;;;;5024962;28;20469;-79
2022/08/04 09:01:30;;;;;;;5.30;2.03;;;29.80;51.50;;;;;;5027296;28;20481;-79
2022/08/04 09:04:26;;;;;;;4.40;1.73;;;29.90;51.40;;;;;;5027380;28;20515;-79
2022/08/04 09:07:13;;;;;;;6.73;2.10;;;29.90;51.10;;;;;;5027651;28;20468;-80
2022/08/04 09:10:03;;;;;;;4.20;1.80;;;29.90;51.20;;;;;;5026530;28;20560;-79
2022/08/04 09:12:39;;;;;;;5.50;1.77;;;30.00;51.20;;;;;;5019300;28;20510;-79
2022/08/04 09:15:14;;;;;;;4.97;1.90;;;30.00;51.00;;;;;;5025372;28;20469;-79
2022/08/04 09:17:48;;;;;;;4.93;1.63;;;30.10;50.90;;;;;;5025819;28;20547;-79
2022/08/04 09:20:25;;;;;;;5.37;1.83;;;30.20;50.90;;;;;;5024915;28;20478;-79
2022/08/04 09:23:17;;;;;;;5.10;1.93;;;30.30;50.70;;;;;;5026279;28;21158;-80
2022/08/04 09:25:51;;;;;;;5.37;2.10;;;30.30;50.60;;;;;;5011457;28;20458;-79
2022/08/04 09:28:23;;;;;;;5.27;1.47;;;30.50;50.40;;;;;;5025551;28;20529;-79
2022/08/04 09:31:14;;;;;;;7.83;1.93;;;30.60;50.10;;;;;;5024989;28;21042;-79
2022/08/04 09:33:49;;;;;;;4.50;2.10;;;30.60;50.00;;;;;;5025504;28;20966;-80
2022/08/04 09:36:28;;;;;;;4.77;1.97;;;30.70;50.10;;;;;;5013676;28;20581;-80
2022/08/04 09:39:17;;;;;;;6.60;2.30;;;30.70;50.00;;;;;;5024685;28;20453;-79
2022/08/04 09:41:54;;;;;;;4.20;2.07;;;30.80;50.00;;;;;;5025940;28;20454;-79
2022/08/04 09:44:31;;;;;;;6.10;2.00;;;30.80;49.70;;;;;;5011053;28;20546;-80
2022/08/04 09:47:29;;;;;;;4.60;1.80;;;30.90;49.40;;;;;;5025763;28;20499;-79
2022/08/04 09:50:16;;;;;;;4.93;1.80;;;31.00;49.20;;;;;;5024700;28;20490;-79
2022/08/04 09:52:54;;;;;;;6.90;2.30;;;31.00;49.10;;;;;;5022803;28;20480;-79
2022/08/04 09:55:34;;;;;;;4.60;2.00;;;31.10;49.10;;;;;;5026696;28;20549;-80
2022/08/04 09:58:07;;;;;;;11.40;2.07;;;31.10;48.90;;;;;;5023070;28;20491;-80
2022/08/04 10:00:40;;;;;;;5.90;1.87;;;31.20;48.80;;;;;;5023201;28;20487;-80
2022/08/04 10:03:12;;;;;;;4.10;1.60;;;31.30;48.80;;;;;;5024389;28;20452;-79
2022/08/04 10:06:01;;;;;;;4.37;1.77;;;31.40;48.60;;;;;;5025914;28;20546;-80
2022/08/04 10:08:43;;;;;;;5.73;1.97;;;31.40;48.40;;;;;;5025438;28;20487;-79
2022/08/04 10:11:21;;;;;;;6.83;1.67;;;31.50;48.20;;;;;;5023583;28;20549;-80
2022/08/04 10:14:00;;;;;;;6.03;1.87;;;31.50;48.10;;;;;;5030276;28;20479;-80
2022/08/04 10:16:40;;;;;;;4.30;1.90;;;31.50;47.90;;;;;;5022237;28;20480;-80
2022/08/04 10:19:20;;;;;;;4.63;2.20;;;31.50;48.00;;;;;;5026105;28;20443;-80
2022/08/04 10:22:02;;;;;;;6.07;2.00;;;31.50;48.00;;;;;;5024867;28;20440;-80
2022/08/04 10:25:02;;;;;;;4.70;2.07;;;31.60;47.90;;;;;;5010686;28;20460;-80
2022/08/04 10:27:38;;;;;;;4.50;1.67;;;31.60;47.90;;;;;;5022519;28;20932;-80
2022/08/04 10:30:10;;;;;;;4.40;1.93;;;31.60;47.80;;;;;;5020260;28;20487;-80
2022/08/04 10:32:45;;;;;;;4.13;1.70;;;31.70;47.80;;;;;;5022610;28;20579;-80
2022/08/04 10:35:15;;;;;;;4.07;1.57;;;31.80;47.60;;;;;;5023298;28;20438;-80
2022/08/04 10:37:53;;;;;;;4.83;1.63;;;31.80;47.40;;;;;;5022986;28;20457;-79
2022/08/04 10:40:36;;;;;;;4.20;1.80;;;31.90;47.00;;;;;;5024655;28;20479;-80
2022/08/04 10:43:12;;;;;;;4.50;2.30;;;32.00;47.00;;;;;;5024922;28;20451;-79
2022/08/04 10:45:54;;;;;;;4.60;1.97;;;32.10;46.80;;;;;;5023972;28;20496;-79
2022/08/04 10:48:36;;;;;;;6.80;1.80;;;32.10;46.70;;;;;;5024101;28;20815;-79
2022/08/04 10:51:18;;;;;;;5.27;2.17;;;32.10;46.50;;;;;;5023506;28;21089;-79
2022/08/04 10:53:54;;;;;;;5.73;1.87;;;32.20;46.30;;;;;;5022923;28;20522;-80
2022/08/04 10:56:29;;;;;;;5.50;1.93;;;32.30;46.30;;;;;;5024695;28;20443;-79
2022/08/04 10:59:03;;;;;;;5.00;1.97;;;32.30;46.30;;;;;;5021117;28;20473;-80
2022/08/04 11:01:35;;;;;;;6.13;2.20;;;32.20;46.10;;;;;;5028687;28;20477;-80
2022/08/04 11:04:27;;;;;;;4.30;1.90;;;32.20;46.20;;;;;;5026619;28;20460;-79
2022/08/04 11:06:58;;;;;;;4.83;1.60;;;32.30;46.10;;;;;;5025425;28;20474;-80
2022/08/04 11:09:28;;;;;;;4.37;1.67;;;32.30;46.10;;;;;;5026689;28;20460;-80
2022/08/04 11:12:03;;;;;;;4.50;1.90;;;32.40;45.90;;;;;;5029618;28;20478;-80
2022/08/04 11:14:39;;;;;;;4.40;1.50;;;32.40;45.70;;;;;;5027621;28;20461;-80
2022/08/04 11:17:11;;;;;;;4.10;1.60;;;32.50;45.60;;;;;;5028246;28;20575;-79
2022/08/04 11:19:46;;;;;;;4.67;1.97;;;32.50;45.60;;;;;;5027562;28;21024;-79
2022/08/04 11:22:25;;;;;;;4.60;1.70;;;32.50;45.50;;;;;;5013697;28;20483;-80
2022/08/04 11:25:00;;;;;;;4.70;2.10;;;32.50;45.40;;;;;;5028056;28;20462;-80
2022/08/04 11:27:35;;;;;;;4.60;1.57;;;32.50;45.40;;;;;;5027457;28;20434;-79
2022/08/04 11:30:07;;;;;;;7.80;1.70;;;32.60;45.30;;;;;;5025482;28;20483;-79
2022/08/04 11:40:16;;;;;;;4.90;1.40;;;32.90;45.10;;;;;;5016644;28;20565;-79
2022/08/04 11:42:55;;;;;;;6.90;2.00;;;32.90;45.10;;;;;;5008375;28;20952;-79
2022/08/04 11:45:33;;;;;;;7.10;2.13;;;32.90;45.10;;;;;;5007150;28;20464;-79
2022/08/04 11:48:08;;;;;;;4.90;2.07;;;32.80;45.00;;;;;;5008090;28;20431;-80
2022/08/04 11:50:40;;;;;;;6.43;2.00;;;32.80;44.90;;;;;;5009538;28;20502;-80
2022/08/04 11:53:11;;;;;;;5.47;2.30;;;32.80;44.80;;;;;;5012670;28;20509;-82
2022/08/04 11:55:40;;;;;;;6.30;2.20;;;32.70;44.80;;;;;;5006102;28;20469;-82
2022/08/04 11:58:29;;;;;;;6.17;2.40;;;32.70;45.00;;;;;;5006295;28;20461;-80
2022/08/04 12:01:08;;;;;;;5.50;2.20;;;32.80;45.20;;;;;;5007786;28;20473;-82
2022/08/04 12:03:47;;;;;;;4.50;2.17;;;32.90;45.10;;;;;;5007021;28;20456;-82
2022/08/04 12:06:42;;;;;;;4.60;1.83;;;33.00;45.20;;;;;;5004185;28;20550;-82
2022/08/04 12:09:34;;;;;;;5.07;2.33;;;33.00;45.10;;;;;;5005538;28;20458;-82
2022/08/04 12:12:13;;;;;;;5.67;2.50;;;33.10;45.10;;;;;;5007872;28;20473;-82
2022/08/04 12:14:51;;;;;;;11.17;5.00;;;33.10;45.10;;;;;;5009745;28;20424;-82
2022/08/04 12:17:27;;;;;;;8.90;2.87;;;33.10;45.10;;;;;;5008611;28;20469;-82
2022/08/04 12:20:20;;;;;;;5.57;2.87;;;33.10;44.90;;;;;;5008942;28;20467;-82
2022/08/04 12:23:15;;;;;;;4.40;2.03;;;33.00;45.00;;;;;;5011120;28;20983;-80
2022/08/04 12:25:47;;;;;;;7.50;2.13;;;33.10;44.90;;;;;;5009884;28;20476;-83
2022/08/04 12:28:22;;;;;;;5.97;1.80;;;33.20;44.90;;;;;;5009715;28;20432;-82
2022/08/04 12:31:08;;;;;;;4.33;1.83;;;33.30;44.80;;;;;;5006513;28;20459;-82
2022/08/04 12:41:45;;;;;;;5.63;2.57;;;33.50;44.70;;;;;;5005829;28;20522;-84
2022/08/04 12:44:14;;;;;;;5.33;2.07;;;33.60;44.70;;;;;;5008125;28;20458;-83
2022/08/04 12:47:06;;;;;;;4.70;2.10;;;33.60;44.50;;;;;;4996828;28;20895;-83
2022/08/04 12:49:57;;;;;;;5.77;2.43;;;33.50;44.50;;;;;;5006127;28;20467;-82
2022/08/04 12:52:30;;;;;;;5.10;2.17;;;33.40;44.60;;;;;;5007202;28;20459;-82
2022/08/04 12:55:22;;;;;;;5.07;2.20;;;33.40;44.50;;;;;;5007736;28;20977;-83
2022/08/04 12:57:53;;;;;;;4.70;1.80;;;33.40;44.40;;;;;;4993579;28;20465;-82
2022/08/04 13:00:27;;;;;;;4.67;1.90;;;33.40;44.40;;;;;;4997780;28;20460;-83
2022/08/04 13:03:06;;;;;;;5.07;2.33;;;33.40;44.40;;;;;;5004452;28;20507;-83
2022/08/04 13:05:40;;;;;;;5.10;1.90;;;33.60;44.20;;;;;;5006864;28;20462;-83
2022/08/04 13:08:09;;;;;;;17.10;2.53;;;33.70;43.90;;;;;;5006903;28;20444;-82
2022/08/04 13:10:41;;;;;;;6.53;1.77;;;33.70;43.70;;;;;;4997726;28;21225;-82
2022/08/04 13:13:17;;;;;;;4.80;1.80;;;33.80;43.40;;;;;;5006593;28;20550;-82
2022/08/04 13:15:56;;;;;;;14.30;2.20;;;33.80;43.30;;;;;;5015062;28;20560;-82
2022/08/04 13:18:27;;;;;;;9.93;2.10;;;33.80;43.40;;;;;;5006767;28;21212;-82
2022/08/04 13:21:18;;;;;;;6.20;2.20;;;33.90;43.50;;;;;;5014206;28;20491;-83
2022/08/04 13:24:11;;;;;;;4.73;2.43;;;33.90;43.60;;;;;;5007328;28;20432;-82
2022/08/04 13:27:03;;;;;;;4.57;2.10;;;33.80;43.60;;;;;;5007132;28;20435;-82
2022/08/04 13:29:39;;;;;;;4.93;2.50;;;33.70;43.60;;;;;;4994026;28;20949;-82
2022/08/04 13:32:27;;;;;;;5.23;2.30;;;33.60;43.80;;;;;;5005626;28;20477;-82
2022/08/04 13:34:57;;;;;;;4.17;1.97;;;33.60;43.90;;;;;;5007446;28;20428;-82
2022/08/04 13:37:33;;;;;;;7.20;2.33;;;33.60;44.00;;;;;;4995032;28;20461;-82
2022/08/04 13:40:04;;;;;;;5.43;2.23;;;33.60;44.20;;;;;;5006413;28;20457;-82
2022/08/04 13:42:34;;;;;;;4.77;2.47;;;33.60;44.20;;;;;;5006839;28;21071;-82
2022/08/04 13:45:08;;;;;;;5.33;2.20;;;33.60;44.10;;;;;;5009818;28;20453;-82
2022/08/04 13:47:38;;;;;;;5.60;2.17;;;33.60;44.30;;;;;;5024347;28;21083;-82
2022/08/04 13:50:14;;;;;;;38.13;4.90;;;33.50;44.50;;;;;;5025742;28;20497;-82
2022/08/04 13:52:44;;;;;;;16.20;3.07;;;33.60;44.50;;;;;;5019333;28;20474;-83
2022/08/04 13:55:28;;;;;;;8.07;2.97;;;33.60;44.40;;;;;;5026834;28;20433;-82
2022/08/04 13:58:01;;;;;;;10.07;3.17;;;33.60;44.20;;;;;;5024821;28;20459;-83
2022/08/04 14:00:43;;;;;;;7.60;2.53;;;33.60;44.30;;;;;;5022212;28;20482;-82
2022/08/04 14:03:20;;;;;;;6.20;2.60;;;33.60;44.20;;;;;;5024224;28;20415;-82
2022/08/04 14:06:14;;;;;;;12.80;2.80;;;33.60;44.20;;;;;;5005250;28;20433;-82